sensor_id;sensor_type;location;lat;lon;timestamp;temperature;humidity
4874;DHT22;2451;49.970;9.068;2023-05-21T00:00:14;15.30;99.90
4874;DHT22;2451;49.970;9.068;2023-05-21T00:02:40;15.20;99.90
4874;DHT22;2451;49.970;9.068;2023-05-21T00:05:06;15.20;99.90
4874;DHT22;2451;49.970;9.068;2023-05-21T00:07:35;15.20;99.90
4874;DHT22;2451;49.970;9.068;2023-05-21T00:10:01;15.20;99.90
4874;DHT22;2451;49.970;9.068;2023-05-21T00:12:26;15.30;99.90
4874;DHT22;2451;49.970;9.068;2023-05-21T00:14:52;15.30;99.90
4874;DHT22;2451;49.970;9.068;2023-05-21T00:17:17;15.30;99.90
4874;DHT22;2451;49.970;9.068;2023-05-21T00:19:43;15.30;99.90
4874;DHT22;2451;49.970;9.068;2023-05-21T00:22:09;15.30;99.90
4874;DHT22;2451;49.970;9.068;2023-05-21T00:24:34;15.30;99.90
4874;DHT22;2451;49.970;9.068;2023-05-21T00:27:00;15.30;99.90
4874;DHT22;2451;49.970;9.068;2023-05-21T00:29:25;15.30;99.90
4874;DHT22;2451;49.970;9.068;2023-05-21T00:31:52;15.40;99.90
4874;DHT22;2451;49.970;9.068;2023-05-21T00:34:18;15.40;99.90
4874;DHT22;2451;49.970;9.068;2023-05-21T00:36:44;15.30;99.90
4874;DHT22;2451;49.970;9.068;2023-05-21T00:39:11;15.30;99.90
4874;DHT22;2451;49.970;9.068;2023-05-21T00:41:37;15.30;99.90
4874;DHT22;2451;49.970;9.068;2023-05-21T00:44:05;15.30;99.90
4874;DHT22;2451;49.970;9.068;2023-05-21T00:46:31;15.30;99.90
4874;DHT22;2451;49.970;9.068;2023-05-21T00:48:56;15.30;99.90
4874;DHT22;2451;49.970;9.068;2023-05-21T00:51:23;15.30;99.90
4874;DHT22;2451;49.970;9.068;2023-05-21T00:53:50;15.30;99.90
4874;DHT22;2451;49.970;9.068;2023-05-21T00:56:18;15.30;99.90
4874;DHT22;2451;49.970;9.068;2023-05-21T00:58:46;15.30;99.90
4874;DHT22;2451;49.970;9.068;2023-05-21T01:01:12;15.30;99.90
4874;DHT22;2451;49.970;9.068;2023-05-21T01:03:38;15.40;99.90
4874;DHT22;2451;49.970;9.068;2023-05-21T01:06:06;15.40;99.90
4874;DHT22;2451;49.970;9.068;2023-05-21T01:08:32;15.40;99.90
4874;DHT22;2451;49.970;9.068;2023-05-21T01:11:00;15.40;99.90
4874;DHT22;2451;49.970;9.068;2023-05-21T01:13:26;15.40;99.90
4874;DHT22;2451;49.970;9.068;2023-05-21T01:15:52;15.40;99.90
4874;DHT22;2451;49.970;9.068;2023-05-21T01:18:19;15.40;99.90
4874;DHT22;2451;49.970;9.068;2023-05-21T01:20:45;15.40;99.90
4874;DHT22;2451;49.970;9.068;2023-05-21T01:23:18;15.40;99.90
4874;DHT22;2451;49.970;9.068;2023-05-21T01:25:44;15.30;99.90
4874;DHT22;2451;49.970;9.068;2023-05-21T01:28:10;15.30;99.90
4874;DHT22;2451;49.970;9.068;2023-05-21T01:30:37;15.30;99.90
4874;DHT22;2451;49.970;9.068;2023-05-21T01:35:41;15.30;99.90
4874;DHT22;2451;49.970;9.068;2023-05-21T01:38:33;15.30;99.90
4874;DHT22;2451;49.970;9.068;2023-05-21T01:41:05;15.30;99.90
4874;DHT22;2451;49.970;9.068;2023-05-21T01:43:34;15.30;99.90
4874;DHT22;2451;49.970;9.068;2023-05-21T01:46:01;15.30;99.90
4874;DHT22;2451;49.970;9.068;2023-05-21T01:48:28;15.30;99.90
4874;DHT22;2451;49.970;9.068;2023-05-21T01:50:56;15.30;99.90
4874;DHT22;2451;49.970;9.068;2023-05-21T01:53:22;15.30;99.90
4874;DHT22;2451;49.970;9.068;2023-05-21T01:55:48;15.30;99.90
4874;DHT22;2451;49.970;9.068;2023-05-21T01:58:14;15.30;99.90
4874;DHT22;2451;49.970;9.068;2023-05-21T02:00:40;15.30;99.90
4874;DHT22;2451;49.970;9.068;2023-05-21T02:03:06;15.30;99.90
4874;DHT22;2451;49.970;9.068;2023-05-21T02:05:33;15.30;99.90
4874;DHT22;2451;49.970;9.068;2023-05-21T02:07:58;15.30;99.90
4874;DHT22;2451;49.970;9.068;2023-05-21T02:10:24;15.30;99.90
4874;DHT22;2451;49.970;9.068;2023-05-21T02:12:50;15.20;99.90
4874;DHT22;2451;49.970;9.068;2023-05-21T02:15:15;15.20;99.90
4874;DHT22;2451;49.970;9.068;2023-05-21T02:17:45;15.20;99.90
4874;DHT22;2451;49.970;9.068;2023-05-21T02:20:11;15.20;99.90
4874;DHT22;2451;49.970;9.068;2023-05-21T02:22:38;15.20;99.90
4874;DHT22;2451;49.970;9.068;2023-05-21T02:25:07;15.20;99.90
4874;DHT22;2451;49.970;9.068;2023-05-21T02:27:36;15.10;99.90
4874;DHT22;2451;49.970;9.068;2023-05-21T02:30:03;15.10;99.90
4874;DHT22;2451;49.970;9.068;2023-05-21T02:32:29;15.10;99.90
4874;DHT22;2451;49.970;9.068;2023-05-21T02:34:59;15.20;99.90
4874;DHT22;2451;49.970;9.068;2023-05-21T02:37:25;15.20;99.90
4874;DHT22;2451;49.970;9.068;2023-05-21T02:39:52;15.20;99.90
4874;DHT22;2451;49.970;9.068;2023-05-21T02:42:18;15.10;99.90
4874;DHT22;2451;49.970;9.068;2023-05-21T02:44:43;15.20;99.90
4874;DHT22;2451;49.970;9.068;2023-05-21T02:47:09;15.20;99.90
4874;DHT22;2451;49.970;9.068;2023-05-21T02:49:36;15.10;99.90
4874;DHT22;2451;49.970;9.068;2023-05-21T02:52:03;15.10;99.90
4874;DHT22;2451;49.970;9.068;2023-05-21T02:54:28;15.10;99.90
4874;DHT22;2451;49.970;9.068;2023-05-21T02:56:54;15.10;99.90
4874;DHT22;2451;49.970;9.068;2023-05-21T02:59:19;15.10;99.90
4874;DHT22;2451;49.970;9.068;2023-05-21T03:01:45;15.10;99.90
4874;DHT22;2451;49.970;9.068;2023-05-21T03:04:10;15.10;99.90
4874;DHT22;2451;49.970;9.068;2023-05-21T03:06:36;15.10;99.90
4874;DHT22;2451;49.970;9.068;2023-05-21T03:09:02;15.00;99.90
4874;DHT22;2451;49.970;9.068;2023-05-21T03:11:27;15.00;99.90
4874;DHT22;2451;49.970;9.068;2023-05-21T03:13:53;15.10;99.90
4874;DHT22;2451;49.970;9.068;2023-05-21T03:16:19;15.00;99.90
4874;DHT22;2451;49.970;9.068;2023-05-21T03:18:44;15.00;99.90
4874;DHT22;2451;49.970;9.068;2023-05-21T03:21:10;15.00;99.90
4874;DHT22;2451;49.970;9.068;2023-05-21T03:23:38;15.00;99.90
4874;DHT22;2451;49.970;9.068;2023-05-21T03:26:04;15.00;99.90
4874;DHT22;2451;49.970;9.068;2023-05-21T03:28:30;14.90;99.90
4874;DHT22;2451;49.970;9.068;2023-05-21T03:30:56;15.00;99.90
4874;DHT22;2451;49.970;9.068;2023-05-21T03:33:21;14.90;99.90
4874;DHT22;2451;49.970;9.068;2023-05-21T03:35:47;14.90;99.90
4874;DHT22;2451;49.970;9.068;2023-05-21T03:38:13;14.90;99.90
4874;DHT22;2451;49.970;9.068;2023-05-21T03:40:38;14.90;99.90
4874;DHT22;2451;49.970;9.068;2023-05-21T03:43:04;14.90;99.90
4874;DHT22;2451;49.970;9.068;2023-05-21T03:45:29;14.90;99.90
4874;DHT22;2451;49.970;9.068;2023-05-21T03:47:55;14.90;99.90
4874;DHT22;2451;49.970;9.068;2023-05-21T03:50:21;14.90;99.90
4874;DHT22;2451;49.970;9.068;2023-05-21T03:52:46;14.90;99.90
4874;DHT22;2451;49.970;9.068;2023-05-21T03:55:12;14.90;99.90
4874;DHT22;2451;49.970;9.068;2023-05-21T03:57:37;14.90;99.90
4874;DHT22;2451;49.970;9.068;2023-05-21T04:00:03;14.90;99.90
4874;DHT22;2451;49.970;9.068;2023-05-21T04:02:30;15.00;99.90
4874;DHT22;2451;49.970;9.068;2023-05-21T04:04:56;14.90;99.90
4874;DHT22;2451;49.970;9.068;2023-05-21T04:07:21;14.90;99.90
4874;DHT22;2451;49.970;9.068;2023-05-21T04:09:47;14.90;99.90
4874;DHT22;2451;49.970;9.068;2023-05-21T04:12:12;14.90;99.90
4874;DHT22;2451;49.970;9.068;2023-05-21T04:14:38;15.00;99.90
4874;DHT22;2451;49.970;9.068;2023-05-21T04:17:04;15.00;99.90
4874;DHT22;2451;49.970;9.068;2023-05-21T04:19:32;14.90;99.90
4874;DHT22;2451;49.970;9.068;2023-05-21T04:21:58;15.00;99.90
4874;DHT22;2451;49.970;9.068;2023-05-21T04:24:24;15.00;99.90
4874;DHT22;2451;49.970;9.068;2023-05-21T04:26:49;15.00;99.90
4874;DHT22;2451;49.970;9.068;2023-05-21T04:29:15;15.00;99.90
4874;DHT22;2451;49.970;9.068;2023-05-21T04:31:42;15.00;99.90
4874;DHT22;2451;49.970;9.068;2023-05-21T04:34:08;15.10;99.90
4874;DHT22;2451;49.970;9.068;2023-05-21T04:36:34;15.20;99.90
4874;DHT22;2451;49.970;9.068;2023-05-21T04:39:00;15.20;99.90
4874;DHT22;2451;49.970;9.068;2023-05-21T04:41:25;15.30;99.90
4874;DHT22;2451;49.970;9.068;2023-05-21T04:43:52;15.30;99.90
4874;DHT22;2451;49.970;9.068;2023-05-21T04:46:20;15.40;99.90
4874;DHT22;2451;49.970;9.068;2023-05-21T04:48:51;15.40;99.90
4874;DHT22;2451;49.970;9.068;2023-05-21T04:51:19;15.50;99.90
4874;DHT22;2451;49.970;9.068;2023-05-21T04:53:45;15.60;99.90
4874;DHT22;2451;49.970;9.068;2023-05-21T04:56:12;15.60;99.90
4874;DHT22;2451;49.970;9.068;2023-05-21T04:58:37;15.70;99.90
4874;DHT22;2451;49.970;9.068;2023-05-21T05:01:04;15.80;99.90
4874;DHT22;2451;49.970;9.068;2023-05-21T05:03:30;15.80;99.90
4874;DHT22;2451;49.970;9.068;2023-05-21T05:05:56;16.00;99.90
4874;DHT22;2451;49.970;9.068;2023-05-21T05:08:21;16.00;99.90
4874;DHT22;2451;49.970;9.068;2023-05-21T05:10:47;16.00;99.90
4874;DHT22;2451;49.970;9.068;2023-05-21T05:13:12;16.10;99.90
4874;DHT22;2451;49.970;9.068;2023-05-21T05:15:38;16.10;99.90
4874;DHT22;2451;49.970;9.068;2023-05-21T05:18:03;16.30;99.90
4874;DHT22;2451;49.970;9.068;2023-05-21T05:20:29;16.30;99.90
4874;DHT22;2451;49.970;9.068;2023-05-21T05:22:54;16.30;99.90
4874;DHT22;2451;49.970;9.068;2023-05-21T05:25:20;16.40;99.90
4874;DHT22;2451;49.970;9.068;2023-05-21T05:27:46;16.50;99.90
4874;DHT22;2451;49.970;9.068;2023-05-21T05:30:11;16.60;99.90
4874;DHT22;2451;49.970;9.068;2023-05-21T05:32:37;16.70;99.90
4874;DHT22;2451;49.970;9.068;2023-05-21T05:35:02;16.80;99.90
4874;DHT22;2451;49.970;9.068;2023-05-21T05:37:28;16.90;99.90
4874;DHT22;2451;49.970;9.068;2023-05-21T05:39:53;17.00;99.90
4874;DHT22;2451;49.970;9.068;2023-05-21T05:42:19;17.10;99.90
4874;DHT22;2451;49.970;9.068;2023-05-21T05:44:45;17.20;99.90
4874;DHT22;2451;49.970;9.068;2023-05-21T05:47:10;17.30;99.90
4874;DHT22;2451;49.970;9.068;2023-05-21T05:49:36;17.30;99.90
4874;DHT22;2451;49.970;9.068;2023-05-21T05:52:02;17.40;99.90
4874;DHT22;2451;49.970;9.068;2023-05-21T05:54:27;17.40;99.90
4874;DHT22;2451;49.970;9.068;2023-05-21T05:56:53;17.50;99.90
4874;DHT22;2451;49.970;9.068;2023-05-21T05:59:18;17.50;99.90
4874;DHT22;2451;49.970;9.068;2023-05-21T06:01:44;17.50;99.90
4874;DHT22;2451;49.970;9.068;2023-05-21T06:04:09;17.60;99.90
4874;DHT22;2451;49.970;9.068;2023-05-21T06:06:35;17.70;99.90
4874;DHT22;2451;49.970;9.068;2023-05-21T06:09:01;17.70;99.90
4874;DHT22;2451;49.970;9.068;2023-05-21T06:11:27;17.90;99.90
4874;DHT22;2451;49.970;9.068;2023-05-21T06:13:53;18.10;99.90
4874;DHT22;2451;49.970;9.068;2023-05-21T06:16:18;18.30;99.90
4874;DHT22;2451;49.970;9.068;2023-05-21T06:18:44;18.40;99.90
4874;DHT22;2451;49.970;9.068;2023-05-21T06:21:09;18.60;99.90
4874;DHT22;2451;49.970;9.068;2023-05-21T06:23:35;18.80;99.90
4874;DHT22;2451;49.970;9.068;2023-05-21T06:26:02;19.00;99.90
4874;DHT22;2451;49.970;9.068;2023-05-21T06:28:28;19.20;99.90
4874;DHT22;2451;49.970;9.068;2023-05-21T06:30:53;19.50;99.90
4874;DHT22;2451;49.970;9.068;2023-05-21T06:33:19;19.70;99.90
4874;DHT22;2451;49.970;9.068;2023-05-21T06:35:44;19.90;99.90
4874;DHT22;2451;49.970;9.068;2023-05-21T06:38:10;20.10;99.90
4874;DHT22;2451;49.970;9.068;2023-05-21T06:40:35;20.30;99.90
4874;DHT22;2451;49.970;9.068;2023-05-21T06:43:01;20.40;99.90
4874;DHT22;2451;49.970;9.068;2023-05-21T06:45:29;20.60;99.90
4874;DHT22;2451;49.970;9.068;2023-05-21T06:47:54;20.80;99.90
4874;DHT22;2451;49.970;9.068;2023-05-21T06:50:20;21.00;99.90
4874;DHT22;2451;49.970;9.068;2023-05-21T06:52:45;21.20;99.90
4874;DHT22;2451;49.970;9.068;2023-05-21T06:55:11;21.30;99.90
4874;DHT22;2451;49.970;9.068;2023-05-21T06:57:37;21.40;99.90
4874;DHT22;2451;49.970;9.068;2023-05-21T07:00:03;21.50;99.90
4874;DHT22;2451;49.970;9.068;2023-05-21T07:02:29;21.60;99.90
4874;DHT22;2451;49.970;9.068;2023-05-21T07:04:55;21.60;99.90
4874;DHT22;2451;49.970;9.068;2023-05-21T07:07:21;21.70;99.90
4874;DHT22;2451;49.970;9.068;2023-05-21T07:09:46;21.60;99.90
4874;DHT22;2451;49.970;9.068;2023-05-21T07:12:12;21.40;99.90
4874;DHT22;2451;49.970;9.068;2023-05-21T07:14:37;21.40;99.90
4874;DHT22;2451;49.970;9.068;2023-05-21T07:17:03;21.40;99.90
4874;DHT22;2451;49.970;9.068;2023-05-21T07:19:28;21.40;99.90
4874;DHT22;2451;49.970;9.068;2023-05-21T07:21:54;21.40;99.90
4874;DHT22;2451;49.970;9.068;2023-05-21T07:24:20;21.40;99.90
4874;DHT22;2451;49.970;9.068;2023-05-21T07:26:46;21.40;99.90
4874;DHT22;2451;49.970;9.068;2023-05-21T07:29:12;21.50;99.90
4874;DHT22;2451;49.970;9.068;2023-05-21T07:31:37;21.50;99.90
4874;DHT22;2451;49.970;9.068;2023-05-21T07:34:03;21.60;99.90
4874;DHT22;2451;49.970;9.068;2023-05-21T07:36:28;21.70;99.90
4874;DHT22;2451;49.970;9.068;2023-05-21T07:38:55;21.70;99.90
4874;DHT22;2451;49.970;9.068;2023-05-21T07:41:21;21.80;99.90
4874;DHT22;2451;49.970;9.068;2023-05-21T07:43:47;21.80;99.90
4874;DHT22;2451;49.970;9.068;2023-05-21T07:46:12;21.80;99.90
4874;DHT22;2451;49.970;9.068;2023-05-21T07:48:38;21.90;99.90
4874;DHT22;2451;49.970;9.068;2023-05-21T07:51:03;21.80;99.90
4874;DHT22;2451;49.970;9.068;2023-05-21T07:53:29;21.90;99.90
4874;DHT22;2451;49.970;9.068;2023-05-21T07:55:57;22.00;99.90
4874;DHT22;2451;49.970;9.068;2023-05-21T07:58:23;22.10;99.90
4874;DHT22;2451;49.970;9.068;2023-05-21T08:00:48;22.10;99.90
4874;DHT22;2451;49.970;9.068;2023-05-21T08:03:16;22.10;99.90
4874;DHT22;2451;49.970;9.068;2023-05-21T08:05:45;22.10;99.90
4874;DHT22;2451;49.970;9.068;2023-05-21T08:08:18;22.20;99.90
4874;DHT22;2451;49.970;9.068;2023-05-21T08:10:44;22.20;99.90
4874;DHT22;2451;49.970;9.068;2023-05-21T08:13:14;22.30;99.90
4874;DHT22;2451;49.970;9.068;2023-05-21T08:15:40;22.50;99.90
4874;DHT22;2451;49.970;9.068;2023-05-21T08:18:06;22.50;99.90
4874;DHT22;2451;49.970;9.068;2023-05-21T08:20:31;22.60;99.90
4874;DHT22;2451;49.970;9.068;2023-05-21T08:23:00;22.70;99.90
4874;DHT22;2451;49.970;9.068;2023-05-21T08:25:26;22.80;99.90
4874;DHT22;2451;49.970;9.068;2023-05-21T08:27:53;22.90;99.90
4874;DHT22;2451;49.970;9.068;2023-05-21T08:30:19;23.10;99.90
4874;DHT22;2451;49.970;9.068;2023-05-21T08:32:44;23.20;99.90
4874;DHT22;2451;49.970;9.068;2023-05-21T08:35:10;23.20;99.90
4874;DHT22;2451;49.970;9.068;2023-05-21T08:37:36;23.20;99.90
4874;DHT22;2451;49.970;9.068;2023-05-21T08:40:02;23.30;99.90
4874;DHT22;2451;49.970;9.068;2023-05-21T08:44:59;23.30;99.90
4874;DHT22;2451;49.970;9.068;2023-05-21T08:47:25;23.30;99.90
4874;DHT22;2451;49.970;9.068;2023-05-21T08:49:57;23.40;99.90
4874;DHT22;2451;49.970;9.068;2023-05-21T08:52:24;23.40;99.90
4874;DHT22;2451;49.970;9.068;2023-05-21T08:54:52;23.40;99.90
4874;DHT22;2451;49.970;9.068;2023-05-21T08:57:18;23.50;99.90
4874;DHT22;2451;49.970;9.068;2023-05-21T08:59:44;23.60;99.90
4874;DHT22;2451;49.970;9.068;2023-05-21T09:02:12;23.70;99.90
4874;DHT22;2451;49.970;9.068;2023-05-21T09:04:39;23.80;99.90
4874;DHT22;2451;49.970;9.068;2023-05-21T09:07:06;24.00;99.90
4874;DHT22;2451;49.970;9.068;2023-05-21T09:09:40;24.00;99.90
4874;DHT22;2451;49.970;9.068;2023-05-21T09:12:09;23.90;99.90
4874;DHT22;2451;49.970;9.068;2023-05-21T09:14:36;24.00;99.90
4874;DHT22;2451;49.970;9.068;2023-05-21T09:17:02;24.10;99.90
4874;DHT22;2451;49.970;9.068;2023-05-21T09:19:27;24.10;99.90
4874;DHT22;2451;49.970;9.068;2023-05-21T09:22:01;24.20;99.90
4874;DHT22;2451;49.970;9.068;2023-05-21T09:24:30;24.20;99.90
4874;DHT22;2451;49.970;9.068;2023-05-21T09:26:59;24.20;99.90
4874;DHT22;2451;49.970;9.068;2023-05-21T09:29:25;24.10;99.90
4874;DHT22;2451;49.970;9.068;2023-05-21T09:31:51;24.10;99.90
4874;DHT22;2451;49.970;9.068;2023-05-21T09:34:16;24.20;99.90
4874;DHT22;2451;49.970;9.068;2023-05-21T09:36:42;24.20;99.90
4874;DHT22;2451;49.970;9.068;2023-05-21T09:39:11;24.20;99.90
4874;DHT22;2451;49.970;9.068;2023-05-21T09:41:41;24.30;99.90
4874;DHT22;2451;49.970;9.068;2023-05-21T09:44:06;24.40;99.90
4874;DHT22;2451;49.970;9.068;2023-05-21T09:46:41;24.50;99.90
4874;DHT22;2451;49.970;9.068;2023-05-21T09:49:21;24.60;99.90
4874;DHT22;2451;49.970;9.068;2023-05-21T09:51:47;24.80;99.90
4874;DHT22;2451;49.970;9.068;2023-05-21T09:54:13;24.80;99.90
4874;DHT22;2451;49.970;9.068;2023-05-21T09:56:38;25.00;99.90
4874;DHT22;2451;49.970;9.068;2023-05-21T09:59:04;25.40;99.90
4874;DHT22;2451;49.970;9.068;2023-05-21T10:01:31;25.90;99.90
4874;DHT22;2451;49.970;9.068;2023-05-21T10:04:03;26.30;99.90
4874;DHT22;2451;49.970;9.068;2023-05-21T10:06:31;26.50;99.90
4874;DHT22;2451;49.970;9.068;2023-05-21T10:08:59;26.70;99.90
4874;DHT22;2451;49.970;9.068;2023-05-21T10:11:29;26.60;99.20
4874;DHT22;2451;49.970;9.068;2023-05-21T10:14:05;26.80;99.90
4874;DHT22;2451;49.970;9.068;2023-05-21T10:16:35;27.00;98.80
4874;DHT22;2451;49.970;9.068;2023-05-21T10:19:01;27.10;99.90
4874;DHT22;2451;49.970;9.068;2023-05-21T10:21:29;27.40;99.30
4874;DHT22;2451;49.970;9.068;2023-05-21T10:23:56;27.70;98.30
4874;DHT22;2451;49.970;9.068;2023-05-21T10:26:25;27.80;97.40
4874;DHT22;2451;49.970;9.068;2023-05-21T10:28:51;28.10;97.00
4874;DHT22;2451;49.970;9.068;2023-05-21T10:31:17;28.20;96.60
4874;DHT22;2451;49.970;9.068;2023-05-21T10:33:43;28.30;96.20
4874;DHT22;2451;49.970;9.068;2023-05-21T10:36:08;28.40;95.50
4874;DHT22;2451;49.970;9.068;2023-05-21T10:38:35;28.50;95.20
4874;DHT22;2451;49.970;9.068;2023-05-21T10:41:02;28.60;95.40
4874;DHT22;2451;49.970;9.068;2023-05-21T10:51:35;28.40;92.40
4874;DHT22;2451;49.970;9.068;2023-05-21T10:59:45;28.10;92.40
4874;DHT22;2451;49.970;9.068;2023-05-21T11:02:13;28.00;91.70
4874;DHT22;2451;49.970;9.068;2023-05-21T11:04:40;27.70;92.20
4874;DHT22;2451;49.970;9.068;2023-05-21T11:07:11;27.80;92.40
4874;DHT22;2451;49.970;9.068;2023-05-21T11:09:37;28.00;92.70
4874;DHT22;2451;49.970;9.068;2023-05-21T11:12:03;28.10;92.90
4874;DHT22;2451;49.970;9.068;2023-05-21T11:14:32;28.10;92.40
4874;DHT22;2451;49.970;9.068;2023-05-21T11:17:17;27.90;92.70
4874;DHT22;2451;49.970;9.068;2023-05-21T11:20:07;28.10;92.60
4874;DHT22;2451;49.970;9.068;2023-05-21T11:22:34;28.40;92.40
4874;DHT22;2451;49.970;9.068;2023-05-21T11:25:01;28.70;92.00
4874;DHT22;2451;49.970;9.068;2023-05-21T11:30:22;28.90;91.60
4874;DHT22;2451;49.970;9.068;2023-05-21T11:35:54;29.00;91.80
4874;DHT22;2451;49.970;9.068;2023-05-21T11:38:20;29.20;91.20
4874;DHT22;2451;49.970;9.068;2023-05-21T11:40:52;29.20;91.00
4874;DHT22;2451;49.970;9.068;2023-05-21T11:43:20;28.90;90.50
4874;DHT22;2451;49.970;9.068;2023-05-21T11:45:46;28.80;90.00
4874;DHT22;2451;49.970;9.068;2023-05-21T11:48:15;28.90;90.60
4874;DHT22;2451;49.970;9.068;2023-05-21T11:50:40;28.90;88.30
4874;DHT22;2451;49.970;9.068;2023-05-21T11:53:10;28.80;85.00
4874;DHT22;2451;49.970;9.068;2023-05-21T11:55:39;28.60;86.10
4874;DHT22;2451;49.970;9.068;2023-05-21T11:58:08;28.70;88.40
4874;DHT22;2451;49.970;9.068;2023-05-21T12:00:39;28.90;87.30
4874;DHT22;2451;49.970;9.068;2023-05-21T12:03:05;28.80;85.70
4874;DHT22;2451;49.970;9.068;2023-05-21T12:05:47;28.80;87.40
4874;DHT22;2451;49.970;9.068;2023-05-21T12:08:12;28.70;85.10
4874;DHT22;2451;49.970;9.068;2023-05-21T12:10:38;28.70;86.70
4874;DHT22;2451;49.970;9.068;2023-05-21T12:13:04;28.70;86.10
4874;DHT22;2451;49.970;9.068;2023-05-21T12:15:30;28.70;85.30
4874;DHT22;2451;49.970;9.068;2023-05-21T12:17:56;28.80;85.90
4874;DHT22;2451;49.970;9.068;2023-05-21T12:20:22;28.90;87.40
4874;DHT22;2451;49.970;9.068;2023-05-21T12:22:48;28.90;86.20
4874;DHT22;2451;49.970;9.068;2023-05-21T12:25:16;29.00;87.10
4874;DHT22;2451;49.970;9.068;2023-05-21T12:27:44;28.70;85.00
4874;DHT22;2451;49.970;9.068;2023-05-21T12:30:11;28.40;85.50
4874;DHT22;2451;49.970;9.068;2023-05-21T12:32:39;28.30;86.30
4874;DHT22;2451;49.970;9.068;2023-05-21T12:35:08;27.80;86.10
4874;DHT22;2451;49.970;9.068;2023-05-21T12:37:33;27.90;87.00
4874;DHT22;2451;49.970;9.068;2023-05-21T12:40:01;28.10;87.00
4874;DHT22;2451;49.970;9.068;2023-05-21T12:42:30;28.20;84.60
4874;DHT22;2451;49.970;9.068;2023-05-21T12:45:01;28.00;85.70
4874;DHT22;2451;49.970;9.068;2023-05-21T12:47:30;27.90;83.90
4874;DHT22;2451;49.970;9.068;2023-05-21T12:49:57;28.10;84.90
4874;DHT22;2451;49.970;9.068;2023-05-21T12:52:23;28.50;86.40
4874;DHT22;2451;49.970;9.068;2023-05-21T12:54:50;28.60;80.70
4874;DHT22;2451;49.970;9.068;2023-05-21T12:57:17;28.70;83.40
4874;DHT22;2451;49.970;9.068;2023-05-21T12:59:58;29.00;84.60
4874;DHT22;2451;49.970;9.068;2023-05-21T13:02:32;29.40;84.10
4874;DHT22;2451;49.970;9.068;2023-05-21T13:04:59;29.80;82.60
4874;DHT22;2451;49.970;9.068;2023-05-21T13:07:26;29.60;81.90
4874;DHT22;2451;49.970;9.068;2023-05-21T13:09:52;29.30;80.20
4874;DHT22;2451;49.970;9.068;2023-05-21T13:12:22;29.00;80.30
4874;DHT22;2451;49.970;9.068;2023-05-21T13:14:49;29.10;80.10
4874;DHT22;2451;49.970;9.068;2023-05-21T13:17:16;29.40;78.50
4874;DHT22;2451;49.970;9.068;2023-05-21T13:19:41;29.50;75.50
4874;DHT22;2451;49.970;9.068;2023-05-21T13:22:07;29.60;76.90
4874;DHT22;2451;49.970;9.068;2023-05-21T13:24:35;30.00;74.90
4874;DHT22;2451;49.970;9.068;2023-05-21T13:27:00;30.00;72.20
4874;DHT22;2451;49.970;9.068;2023-05-21T13:29:26;29.90;72.50
4874;DHT22;2451;49.970;9.068;2023-05-21T13:31:51;29.80;74.10
4874;DHT22;2451;49.970;9.068;2023-05-21T13:34:17;29.60;73.70
4874;DHT22;2451;49.970;9.068;2023-05-21T13:36:42;29.30;74.10
4874;DHT22;2451;49.970;9.068;2023-05-21T13:39:08;29.10;75.70
4874;DHT22;2451;49.970;9.068;2023-05-21T13:41:33;29.10;72.30
4874;DHT22;2451;49.970;9.068;2023-05-21T13:43:59;29.20;73.20
4874;DHT22;2451;49.970;9.068;2023-05-21T13:46:25;29.10;72.10
4874;DHT22;2451;49.970;9.068;2023-05-21T13:48:51;29.10;70.70
4874;DHT22;2451;49.970;9.068;2023-05-21T13:51:16;29.30;73.90
4874;DHT22;2451;49.970;9.068;2023-05-21T13:53:42;29.50;73.00
4874;DHT22;2451;49.970;9.068;2023-05-21T13:56:07;29.80;71.70
4874;DHT22;2451;49.970;9.068;2023-05-21T13:58:33;29.90;71.40
4874;DHT22;2451;49.970;9.068;2023-05-21T14:01:00;29.80;69.10
4874;DHT22;2451;49.970;9.068;2023-05-21T14:03:26;29.70;68.80
4874;DHT22;2451;49.970;9.068;2023-05-21T14:05:52;29.80;70.90
4874;DHT22;2451;49.970;9.068;2023-05-21T14:08:19;29.80;66.90
4874;DHT22;2451;49.970;9.068;2023-05-21T14:10:45;29.60;69.00
4874;DHT22;2451;49.970;9.068;2023-05-21T14:13:12;29.30;67.60
4874;DHT22;2451;49.970;9.068;2023-05-21T14:15:37;28.80;69.70
4874;DHT22;2451;49.970;9.068;2023-05-21T14:18:04;28.30;69.20
4874;DHT22;2451;49.970;9.068;2023-05-21T14:20:32;28.00;70.00
4874;DHT22;2451;49.970;9.068;2023-05-21T14:22:58;27.80;71.30
4874;DHT22;2451;49.970;9.068;2023-05-21T14:25:23;27.80;71.90
4874;DHT22;2451;49.970;9.068;2023-05-21T14:27:49;27.70;71.80
4874;DHT22;2451;49.970;9.068;2023-05-21T14:30:14;27.60;71.80
4874;DHT22;2451;49.970;9.068;2023-05-21T14:32:40;27.60;72.90
4874;DHT22;2451;49.970;9.068;2023-05-21T14:35:06;27.70;74.40
4874;DHT22;2451;49.970;9.068;2023-05-21T14:37:31;28.00;74.30
4874;DHT22;2451;49.970;9.068;2023-05-21T14:39:57;27.80;72.00
4874;DHT22;2451;49.970;9.068;2023-05-21T14:42:22;27.70;71.90
4874;DHT22;2451;49.970;9.068;2023-05-21T14:44:48;27.50;72.70
4874;DHT22;2451;49.970;9.068;2023-05-21T14:47:13;27.40;74.20
4874;DHT22;2451;49.970;9.068;2023-05-21T14:49:39;27.20;74.70
4874;DHT22;2451;49.970;9.068;2023-05-21T14:52:05;27.10;75.40
4874;DHT22;2451;49.970;9.068;2023-05-21T14:54:30;27.00;75.20
4874;DHT22;2451;49.970;9.068;2023-05-21T14:56:56;27.00;75.80
4874;DHT22;2451;49.970;9.068;2023-05-21T14:59:21;27.00;75.90
4874;DHT22;2451;49.970;9.068;2023-05-21T15:01:47;27.10;75.10
4874;DHT22;2451;49.970;9.068;2023-05-21T15:04:12;27.10;74.30
4874;DHT22;2451;49.970;9.068;2023-05-21T15:06:38;27.20;74.70
4874;DHT22;2451;49.970;9.068;2023-05-21T15:09:03;27.20;74.90
4874;DHT22;2451;49.970;9.068;2023-05-21T15:11:29;27.30;72.40
4874;DHT22;2451;49.970;9.068;2023-05-21T15:13:54;27.30;72.10
4874;DHT22;2451;49.970;9.068;2023-05-21T15:16:20;27.30;72.10
4874;DHT22;2451;49.970;9.068;2023-05-21T15:18:45;27.40;72.90
4874;DHT22;2451;49.970;9.068;2023-05-21T15:21:11;27.40;73.30
4874;DHT22;2451;49.970;9.068;2023-05-21T15:23:36;27.50;72.40
4874;DHT22;2451;49.970;9.068;2023-05-21T15:26:02;27.50;72.70
4874;DHT22;2451;49.970;9.068;2023-05-21T15:28:27;27.50;73.50
4874;DHT22;2451;49.970;9.068;2023-05-21T15:30:53;27.50;72.50
4874;DHT22;2451;49.970;9.068;2023-05-21T15:33:19;27.50;71.20
4874;DHT22;2451;49.970;9.068;2023-05-21T15:35:44;27.50;72.60
4874;DHT22;2451;49.970;9.068;2023-05-21T15:38:10;27.50;72.90
4874;DHT22;2451;49.970;9.068;2023-05-21T15:40:38;27.50;72.70
4874;DHT22;2451;49.970;9.068;2023-05-21T15:43:05;27.50;71.80
4874;DHT22;2451;49.970;9.068;2023-05-21T15:45:30;27.40;71.20
4874;DHT22;2451;49.970;9.068;2023-05-21T15:47:56;27.30;72.10
4874;DHT22;2451;49.970;9.068;2023-05-21T15:50:21;27.30;74.10
4874;DHT22;2451;49.970;9.068;2023-05-21T15:52:47;27.30;75.60
4874;DHT22;2451;49.970;9.068;2023-05-21T15:55:13;27.30;75.70
4874;DHT22;2451;49.970;9.068;2023-05-21T15:57:38;27.30;74.40
4874;DHT22;2451;49.970;9.068;2023-05-21T16:00:04;27.30;76.40
4874;DHT22;2451;49.970;9.068;2023-05-21T16:02:30;27.20;71.80
4874;DHT22;2451;49.970;9.068;2023-05-21T16:04:56;27.00;71.90
4874;DHT22;2451;49.970;9.068;2023-05-21T16:07:22;27.00;72.80
4874;DHT22;2451;49.970;9.068;2023-05-21T16:09:47;27.00;72.60
4874;DHT22;2451;49.970;9.068;2023-05-21T16:12:13;26.80;70.90
4874;DHT22;2451;49.970;9.068;2023-05-21T16:14:38;26.70;71.70
4874;DHT22;2451;49.970;9.068;2023-05-21T16:17:04;26.70;72.30
4874;DHT22;2451;49.970;9.068;2023-05-21T16:19:30;26.60;72.40
4874;DHT22;2451;49.970;9.068;2023-05-21T16:21:55;26.60;72.40